createdAt,value
2018-07-31T00:00:53.092Z,23.09
2018-07-31T00:03:21.394Z,22.94
2018-07-31T00:05:49.633Z,23.04
2018-07-31T00:08:17.946Z,22.98
2018-07-31T00:10:46.226Z,22.78
2018-07-31T00:13:14.725Z,22.81
2018-07-31T00:15:42.989Z,22.68
2018-07-31T00:18:11.281Z,22.52
2018-07-31T00:20:39.538Z,22.44
2018-07-31T00:23:07.984Z,22.52
2018-07-31T00:25:36.242Z,22.53
2018-07-31T00:28:04.513Z,22.47
2018-07-31T00:30:34.715Z,22.51
2018-07-31T00:33:03.051Z,22.44
2018-07-31T00:35:31.385Z,22.20
2018-07-31T00:37:59.686Z,22.22
2018-07-31T00:40:27.994Z,22.23
2018-07-31T00:42:56.273Z,22.15
2018-07-31T00:45:24.631Z,22.29
2018-07-31T00:47:52.922Z,22.23
2018-07-31T00:50:21.193Z,22.23
2018-07-31T00:52:49.457Z,22.16
2018-07-31T00:55:17.975Z,21.96
2018-07-31T00:57:46.238Z,21.72
2018-07-31T01:00:14.489Z,21.75
2018-07-31T01:02:42.787Z,21.77
2018-07-31T01:05:11.067Z,21.75
2018-07-31T01:07:39.369Z,21.77
2018-07-31T01:10:07.917Z,21.56
2018-07-31T01:12:36.169Z,21.59
2018-07-31T01:15:04.732Z,21.51
2018-07-31T01:17:33.018Z,21.55
2018-07-31T01:20:01.369Z,21.52
2018-07-31T01:22:29.625Z,21.43
2018-07-31T01:24:58.066Z,21.49
2018-07-31T01:27:26.364Z,21.41
2018-07-31T01:29:54.752Z,21.44
2018-07-31T01:32:23.028Z,21.44
2018-07-31T01:34:51.275Z,21.39
2018-07-31T01:37:19.577Z,21.30
2018-07-31T01:39:47.807Z,21.32
2018-07-31T01:42:16.111Z,21.34
2018-07-31T01:44:44.435Z,21.32
2018-07-31T01:47:12.747Z,21.33
2018-07-31T01:49:41.283Z,21.36
2018-07-31T01:52:09.617Z,21.27
2018-07-31T01:54:37.879Z,21.28
2018-07-31T01:57:06.168Z,21.24
2018-07-31T01:59:34.491Z,21.19
2018-07-31T02:02:02.771Z,21.30
2018-07-31T02:04:31.250Z,21.31
2018-07-31T02:06:59.582Z,21.33
2018-07-31T02:09:27.875Z,21.31
2018-07-31T02:11:56.157Z,21.23
2018-07-31T02:14:24.411Z,21.16
2018-07-31T02:16:52.708Z,21.03
2018-07-31T02:19:20.981Z,20.99
2018-07-31T02:21:49.280Z,21.01
2018-07-31T02:24:20.012Z,21.07
2018-07-31T02:26:48.294Z,21.00
2018-07-31T02:29:20.774Z,21.07
2018-07-31T02:31:49.172Z,21.00
2018-07-31T02:34:17.416Z,21.00
2018-07-31T02:36:45.712Z,20.99
2018-07-31T02:39:13.989Z,20.98
2018-07-31T02:41:42.233Z,20.93
2018-07-31T02:44:10.544Z,20.92
2018-07-31T02:46:38.840Z,20.97
2018-07-31T02:49:07.141Z,20.99
2018-07-31T02:51:35.388Z,21.00
2018-07-31T02:54:03.693Z,20.88
2018-07-31T02:56:31.976Z,20.87
2018-07-31T02:59:00.262Z,20.77
2018-07-31T03:01:28.551Z,20.82
2018-07-31T03:03:56.828Z,20.82
2018-07-31T03:06:25.133Z,20.80
2018-07-31T03:08:53.393Z,20.80
2018-07-31T03:11:21.993Z,20.73
2018-07-31T03:13:50.299Z,20.70
2018-07-31T03:16:18.964Z,20.65
2018-07-31T03:18:47.355Z,20.61
2018-07-31T03:21:15.777Z,20.63
2018-07-31T03:23:44.101Z,20.62
2018-07-31T03:26:12.495Z,20.66
2018-07-31T03:28:40.774Z,20.68
2018-07-31T03:31:09.380Z,20.72
2018-07-31T03:33:37.635Z,20.64
2018-07-31T03:36:05.903Z,20.64
2018-07-31T03:38:35.071Z,20.68
2018-07-31T03:41:03.331Z,20.62
2018-07-31T03:43:31.850Z,20.56
2018-07-31T03:46:00.088Z,20.52
2018-07-31T03:48:28.344Z,20.41
2018-07-31T03:50:56.628Z,20.38
2018-07-31T03:53:24.900Z,20.39
2018-07-31T03:55:53.192Z,20.44
2018-07-31T03:58:21.442Z,20.33
2018-07-31T04:00:49.814Z,20.26
2018-07-31T04:03:18.071Z,20.23
2018-07-31T04:05:46.695Z,20.24
2018-07-31T04:08:15.020Z,20.34
2018-07-31T04:10:43.271Z,20.44
2018-07-31T04:13:11.553Z,20.43
2018-07-31T04:15:39.825Z,20.40
2018-07-31T04:18:08.166Z,20.43
2018-07-31T04:20:36.460Z,20.44
2018-07-31T04:23:04.769Z,20.47
2018-07-31T04:25:33.063Z,20.53
2018-07-31T04:28:01.554Z,20.61
2018-07-31T04:30:29.869Z,20.71
2018-07-31T04:32:58.130Z,20.80
2018-07-31T04:35:26.482Z,20.85
2018-07-31T04:37:54.912Z,20.96
2018-07-31T04:40:23.174Z,21.10
2018-07-31T04:42:51.500Z,21.23
2018-07-31T04:45:19.790Z,21.28
2018-07-31T04:47:48.081Z,21.38
2018-07-31T04:50:19.223Z,21.38
2018-07-31T04:52:47.465Z,21.43
2018-07-31T04:55:15.769Z,21.48
2018-07-31T04:57:44.023Z,21.52
2018-07-31T05:00:12.375Z,21.51
2018-07-31T05:02:40.677Z,21.49
2018-07-31T05:05:08.954Z,21.57
2018-07-31T05:07:39.244Z,21.73
2018-07-31T05:10:10.060Z,21.86
2018-07-31T05:12:38.460Z,21.88
2018-07-31T05:15:06.954Z,21.68
2018-07-31T05:17:36.091Z,21.70
2018-07-31T05:20:04.631Z,21.60
2018-07-31T05:22:32.878Z,21.61
2018-07-31T05:25:01.216Z,21.79
2018-07-31T05:27:29.564Z,21.51
2018-07-31T05:29:57.814Z,21.85
2018-07-31T05:32:26.061Z,21.79
2018-07-31T05:34:54.429Z,21.53
2018-07-31T05:37:22.801Z,21.75
2018-07-31T05:39:51.128Z,21.96
2018-07-31T05:42:19.390Z,21.98
2018-07-31T05:44:47.679Z,22.10
2018-07-31T05:47:15.976Z,22.23
2018-07-31T05:49:44.258Z,22.36
2018-07-31T05:52:12.691Z,22.39
2018-07-31T05:54:41.148Z,22.68
2018-07-31T05:57:09.497Z,22.76
2018-07-31T05:59:37.806Z,22.76
2018-07-31T06:02:06.086Z,22.76
2018-07-31T06:04:34.387Z,23.07
2018-07-31T06:07:02.682Z,23.00
2018-07-31T06:09:30.970Z,23.07
2018-07-31T06:11:59.265Z,23.33
2018-07-31T06:14:27.544Z,23.46
2018-07-31T06:16:55.805Z,23.57
2018-07-31T06:19:24.076Z,23.61
2018-07-31T06:21:52.373Z,23.57
2018-07-31T06:24:20.835Z,23.62
2018-07-31T06:26:49.099Z,23.75
2018-07-31T06:29:17.375Z,23.82
2018-07-31T06:31:45.796Z,23.85
2018-07-31T06:34:14.077Z,23.97
2018-07-31T06:36:42.396Z,24.48
2018-07-31T06:39:11.073Z,24.71
2018-07-31T06:41:39.375Z,24.51
2018-07-31T06:44:07.991Z,24.66
2018-07-31T06:46:36.631Z,24.75
2018-07-31T06:49:04.945Z,24.69
2018-07-31T06:51:33.322Z,25.27
2018-07-31T06:54:01.680Z,24.89
2018-07-31T06:56:30.312Z,25.10
2018-07-31T06:58:58.577Z,25.01
2018-07-31T07:01:27.023Z,25.48
2018-07-31T07:03:55.270Z,25.76
2018-07-31T07:06:23.561Z,25.63
2018-07-31T07:08:51.832Z,25.83
2018-07-31T07:11:20.119Z,25.79
2018-07-31T07:13:48.401Z,25.54
2018-07-31T07:16:16.746Z,25.58
2018-07-31T07:18:45.133Z,25.69
2018-07-31T07:21:13.432Z,26.38
2018-07-31T07:23:41.689Z,26.50
2018-07-31T07:26:09.988Z,26.05
2018-07-31T07:28:38.244Z,26.10
2018-07-31T07:31:06.652Z,25.77
2018-07-31T07:33:36.301Z,25.41
2018-07-31T07:36:04.535Z,25.71
2018-07-31T07:38:33.251Z,25.62
2018-07-31T07:41:01.491Z,25.68
2018-07-31T07:43:29.777Z,25.68
2018-07-31T07:45:58.018Z,25.67
2018-07-31T07:48:26.316Z,25.64
2018-07-31T07:50:54.621Z,25.95
2018-07-31T07:53:22.905Z,25.65
2018-07-31T07:55:51.210Z,26.02
2018-07-31T07:58:19.460Z,26.14
2018-07-31T08:00:47.776Z,26.26
2018-07-31T08:03:16.095Z,26.46
2018-07-31T08:05:44.379Z,26.95
2018-07-31T08:08:12.641Z,27.05
2018-07-31T08:10:42.727Z,26.97
2018-07-31T08:13:11.047Z,26.94
2018-07-31T08:15:39.558Z,27.19
2018-07-31T08:18:07.864Z,27.29
2018-07-31T08:20:36.192Z,27.22
2018-07-31T08:23:04.665Z,27.02
2018-07-31T08:25:33.134Z,27.06
2018-07-31T08:28:01.768Z,27.69
2018-07-31T08:30:30.109Z,28.33
2018-07-31T08:32:58.780Z,27.72
2018-07-31T08:35:27.728Z,27.66
2018-07-31T08:37:56.246Z,27.76
2018-07-31T08:40:24.545Z,27.86
2018-07-31T08:42:52.872Z,28.63
2018-07-31T08:45:21.537Z,28.42
2018-07-31T08:47:49.797Z,28.91
2018-07-31T08:50:18.105Z,28.82
2018-07-31T08:52:46.374Z,29.00
2018-07-31T08:55:14.886Z,28.77
2018-07-31T08:57:43.358Z,28.84
2018-07-31T09:00:11.670Z,28.90
2018-07-31T09:02:40.023Z,29.37
2018-07-31T09:05:08.535Z,29.09
2018-07-31T09:07:37.003Z,28.94
2018-07-31T09:10:06.102Z,29.76
2018-07-31T09:12:34.454Z,30.36
2018-07-31T09:15:02.753Z,30.14
2018-07-31T09:17:31.258Z,30.80
2018-07-31T09:19:59.501Z,30.54
2018-07-31T09:22:27.795Z,30.00
2018-07-31T09:24:56.159Z,30.45
2018-07-31T09:27:24.556Z,29.67
2018-07-31T09:29:52.879Z,30.49
2018-07-31T09:32:26.640Z,30.05
2018-07-31T09:34:54.932Z,29.56
2018-07-31T09:37:23.304Z,30.17
2018-07-31T09:39:51.579Z,30.12
2018-07-31T09:42:19.889Z,30.32
2018-07-31T09:44:48.215Z,29.98
2018-07-31T09:47:16.464Z,30.31
2018-07-31T09:49:44.781Z,30.83
2018-07-31T09:52:13.036Z,31.03
2018-07-31T09:54:41.441Z,30.98
2018-07-31T09:57:09.912Z,30.99
2018-07-31T09:59:38.201Z,30.44
2018-07-31T10:02:06.991Z,30.56
2018-07-31T10:04:35.257Z,30.35
2018-07-31T10:07:03.556Z,30.22
2018-07-31T10:09:31.809Z,29.81
2018-07-31T10:12:01.949Z,29.46
2018-07-31T10:14:30.292Z,29.81
2018-07-31T10:16:58.602Z,30.16
2018-07-31T10:19:26.916Z,30.28
2018-07-31T10:21:55.241Z,30.51
2018-07-31T10:24:23.838Z,30.30
2018-07-31T10:26:52.541Z,30.09
2018-07-31T10:29:21.349Z,30.16
2018-07-31T10:32:07.132Z,30.32
2018-07-31T10:34:35.447Z,30.41
2018-07-31T10:37:03.773Z,30.39
2018-07-31T10:39:32.197Z,30.56
2018-07-31T10:42:00.453Z,30.52
2018-07-31T10:44:28.801Z,30.59
2018-07-31T10:46:57.068Z,30.81
2018-07-31T10:49:25.347Z,30.96
2018-07-31T10:51:53.675Z,31.33
2018-07-31T10:54:22.274Z,31.20
2018-07-31T10:56:50.693Z,31.59
2018-07-31T10:59:18.987Z,31.65
2018-07-31T11:01:47.682Z,31.78
2018-07-31T11:04:16.225Z,31.70
2018-07-31T11:06:44.635Z,31.54
2018-07-31T11:09:12.987Z,31.65
2018-07-31T11:11:41.766Z,31.93
2018-07-31T11:14:10.601Z,31.49
2018-07-31T11:16:39.101Z,31.96
2018-07-31T11:19:07.578Z,31.86
2018-07-31T11:21:36.007Z,31.85
2018-07-31T11:24:04.301Z,32.25
2018-07-31T11:26:32.672Z,31.59
2018-07-31T11:29:01.091Z,31.39
2018-07-31T11:31:29.440Z,31.09
2018-07-31T11:33:57.686Z,31.11
2018-07-31T11:36:26.044Z,31.00
2018-07-31T11:38:54.362Z,30.59
2018-07-31T11:41:22.781Z,30.94
2018-07-31T11:43:51.122Z,31.16
2018-07-31T11:46:19.405Z,31.17
2018-07-31T11:48:47.796Z,31.21
2018-07-31T11:51:16.069Z,31.27
2018-07-31T11:53:44.460Z,31.97
2018-07-31T11:56:13.623Z,32.84
2018-07-31T11:58:41.964Z,33.38
2018-07-31T12:01:10.265Z,33.70
2018-07-31T12:03:38.556Z,33.32
2018-07-31T12:06:07.104Z,32.76
2018-07-31T12:08:35.395Z,32.49
2018-07-31T12:11:03.737Z,31.26
2018-07-31T12:13:32.024Z,31.18
2018-07-31T12:16:00.337Z,30.94
2018-07-31T12:18:28.678Z,29.83
2018-07-31T12:20:56.987Z,30.08
2018-07-31T12:23:31.901Z,29.87
2018-07-31T12:26:00.147Z,30.05
2018-07-31T12:28:28.455Z,29.72
2018-07-31T12:30:56.773Z,30.79
2018-07-31T12:33:25.052Z,31.16
2018-07-31T12:35:53.371Z,31.20
2018-07-31T12:38:22.078Z,31.45
2018-07-31T12:40:50.327Z,32.11
2018-07-31T12:43:18.598Z,32.58
2018-07-31T12:45:46.975Z,32.31
2018-07-31T12:48:15.325Z,31.33
2018-07-31T12:50:43.685Z,33.56
2018-07-31T12:53:12.059Z,33.38
2018-07-31T12:55:40.357Z,33.47
2018-07-31T12:58:08.610Z,32.97
2018-07-31T13:00:37.386Z,32.38
2018-07-31T13:03:06.095Z,31.92
2018-07-31T13:05:34.449Z,31.45
2018-07-31T13:08:02.759Z,31.42
2018-07-31T13:10:31.006Z,30.50
2018-07-31T13:12:59.356Z,30.73
2018-07-31T13:15:27.760Z,30.50
2018-07-31T13:17:56.506Z,28.58
2018-07-31T13:20:24.924Z,28.06
2018-07-31T13:22:53.836Z,28.66
2018-07-31T13:25:22.086Z,30.02
2018-07-31T13:27:50.974Z,30.02
2018-07-31T13:30:19.341Z,29.61
2018-07-31T13:32:47.650Z,29.59
2018-07-31T13:35:15.935Z,29.64
2018-07-31T13:37:44.210Z,29.57
2018-07-31T13:40:12.564Z,29.24
2018-07-31T13:42:40.911Z,28.90
2018-07-31T13:45:09.175Z,29.13
2018-07-31T13:47:37.496Z,29.98
2018-07-31T13:50:05.790Z,29.68
2018-07-31T13:52:34.094Z,30.97
2018-07-31T13:55:02.675Z,30.48
2018-07-31T13:57:31.189Z,30.80
2018-07-31T13:59:59.527Z,30.60
2018-07-31T14:02:27.827Z,29.76
2018-07-31T14:04:56.158Z,30.81
2018-07-31T14:07:24.419Z,31.57
2018-07-31T14:09:52.736Z,31.86
2018-07-31T14:12:21.027Z,32.29
2018-07-31T14:14:50.152Z,32.73
2018-07-31T14:17:20.260Z,32.26
2018-07-31T14:19:48.618Z,32.11
2018-07-31T14:22:16.982Z,31.86
2018-07-31T14:24:45.309Z,31.52
2018-07-31T14:27:13.616Z,32.66
2018-07-31T14:29:41.861Z,32.58
2018-07-31T14:32:10.151Z,32.09
2018-07-31T14:34:38.459Z,32.71
2018-07-31T14:37:06.777Z,32.25
2018-07-31T14:39:35.313Z,31.30
2018-07-31T14:42:10.291Z,32.10
2018-07-31T14:44:38.625Z,32.47
2018-07-31T14:47:06.999Z,32.63
2018-07-31T14:49:35.282Z,32.16
2018-07-31T14:52:10.130Z,31.74
2018-07-31T14:54:38.619Z,32.45
2018-07-31T14:57:07.138Z,33.31
2018-07-31T14:59:35.482Z,33.39
2018-07-31T15:02:04.102Z,32.32
2018-07-31T15:04:32.470Z,31.60
2018-07-31T15:07:00.793Z,31.89
2018-07-31T15:09:29.141Z,32.01
2018-07-31T15:11:57.551Z,31.96
2018-07-31T15:14:25.842Z,32.02
2018-07-31T15:16:54.155Z,31.73
2018-07-31T15:19:22.420Z,31.67
2018-07-31T15:21:50.711Z,31.73
2018-07-31T15:24:19.040Z,30.68
2018-07-31T15:26:47.365Z,29.90
2018-07-31T15:29:15.672Z,31.04
2018-07-31T15:31:44.032Z,30.75
2018-07-31T15:34:12.474Z,30.67
2018-07-31T15:36:40.776Z,32.06
2018-07-31T15:39:11.915Z,31.02
2018-07-31T15:41:40.658Z,31.94
2018-07-31T15:44:09.149Z,31.93
2018-07-31T15:46:37.458Z,31.73
2018-07-31T15:49:05.925Z,32.42
2018-07-31T15:51:34.366Z,32.40
2018-07-31T15:54:03.740Z,32.35
2018-07-31T15:56:32.277Z,33.11
2018-07-31T15:59:00.556Z,32.90
2018-07-31T16:01:29.578Z,33.03
2018-07-31T16:03:58.559Z,32.34
2018-07-31T16:06:27.152Z,31.68
2018-07-31T16:08:55.429Z,32.16
2018-07-31T16:11:23.693Z,32.00
2018-07-31T16:13:52.078Z,31.38
2018-07-31T16:16:20.377Z,32.05
2018-07-31T16:18:48.707Z,33.06
2018-07-31T16:21:16.963Z,32.82
2018-07-31T16:23:45.332Z,32.66
2018-07-31T16:26:13.681Z,31.38
2018-07-31T16:28:42.486Z,31.49
2018-07-31T16:31:10.852Z,33.23
2018-07-31T16:33:39.345Z,32.39
2018-07-31T16:36:07.646Z,33.30
2018-07-31T16:38:36.032Z,34.17
2018-07-31T16:41:04.364Z,32.86
2018-07-31T16:43:32.710Z,32.73
2018-07-31T16:46:01.100Z,32.49
2018-07-31T16:48:29.413Z,32.37
2018-07-31T16:50:57.707Z,32.96
2018-07-31T16:53:26.007Z,32.87
2018-07-31T16:55:54.303Z,32.65
2018-07-31T16:58:22.649Z,32.35
2018-07-31T17:00:51.031Z,31.77
2018-07-31T17:03:19.332Z,32.03
2018-07-31T17:05:47.651Z,31.52
2018-07-31T17:08:15.985Z,32.21
2018-07-31T17:10:44.420Z,30.15
2018-07-31T17:13:12.680Z,31.61
2018-07-31T17:15:41.085Z,31.77
2018-07-31T17:18:10.444Z,31.87
2018-07-31T17:20:38.816Z,31.31
2018-07-31T17:23:07.232Z,31.27
2018-07-31T17:25:35.714Z,31.32
2018-07-31T17:28:04.249Z,30.96
2018-07-31T17:30:32.809Z,31.47
2018-07-31T17:33:01.066Z,31.23
2018-07-31T17:35:29.383Z,30.50
2018-07-31T17:37:57.808Z,30.65
2018-07-31T17:40:26.100Z,29.58
2018-07-31T17:42:54.366Z,30.64
2018-07-31T17:45:22.619Z,30.96
2018-07-31T17:47:50.904Z,30.92
2018-07-31T17:50:19.493Z,30.44
2018-07-31T17:52:47.893Z,29.68
2018-07-31T17:55:16.208Z,29.61
2018-07-31T17:57:44.602Z,30.34
2018-07-31T18:00:12.878Z,29.16
2018-07-31T18:02:41.414Z,29.20
2018-07-31T18:05:09.735Z,29.82
2018-07-31T18:07:38.009Z,29.87
2018-07-31T18:10:06.402Z,29.62
2018-07-31T18:12:34.862Z,29.03
2018-07-31T18:15:03.232Z,29.16
2018-07-31T18:17:32.539Z,27.55
2018-07-31T18:20:00.889Z,26.61
2018-07-31T18:22:29.149Z,26.61
2018-07-31T18:24:57.450Z,27.02
2018-07-31T18:27:25.728Z,26.85
2018-07-31T18:29:54.338Z,26.67
2018-07-31T18:32:22.614Z,26.65
2018-07-31T18:34:50.969Z,25.90
2018-07-31T18:37:19.265Z,25.45
2018-07-31T18:39:47.627Z,25.90
2018-07-31T18:42:15.974Z,25.55
2018-07-31T18:44:44.246Z,25.17
2018-07-31T18:47:12.565Z,25.17
2018-07-31T18:49:40.933Z,25.27
2018-07-31T18:52:09.325Z,25.14
2018-07-31T18:54:37.576Z,24.76
2018-07-31T18:57:05.850Z,24.55
2018-07-31T18:59:34.267Z,24.54
2018-07-31T19:02:03.578Z,24.63
2018-07-31T19:04:32.051Z,24.62
2018-07-31T19:07:00.415Z,24.43
2018-07-31T19:09:28.954Z,24.05
2018-07-31T19:11:57.224Z,24.06
2018-07-31T19:14:25.646Z,24.06
2018-07-31T19:16:54.004Z,23.87
2018-07-31T19:19:22.330Z,23.72
2018-07-31T19:21:50.581Z,23.71
2018-07-31T19:24:18.884Z,23.79
2018-07-31T19:26:47.189Z,23.65
2018-07-31T19:29:15.463Z,23.47
2018-07-31T19:31:43.817Z,23.22
2018-07-31T19:34:12.199Z,23.33
2018-07-31T19:36:40.666Z,23.26
2018-07-31T19:39:09.498Z,23.15
2018-07-31T19:41:37.826Z,23.07
2018-07-31T19:44:06.416Z,23.02
2018-07-31T19:46:34.729Z,22.95
2018-07-31T19:49:03.051Z,22.72
2018-07-31T19:51:31.406Z,22.72
2018-07-31T19:54:00.092Z,22.71
2018-07-31T19:56:28.616Z,22.73
2018-07-31T19:58:56.987Z,22.48
2018-07-31T20:01:25.321Z,22.45
2018-07-31T20:03:53.630Z,22.44
2018-07-31T20:06:21.986Z,22.58
2018-07-31T20:08:50.308Z,22.31
2018-07-31T20:11:18.641Z,22.27
2018-07-31T20:13:47.014Z,22.22
2018-07-31T20:16:15.293Z,22.17
2018-07-31T20:18:43.634Z,22.11
2018-07-31T20:21:11.951Z,22.06
2018-07-31T20:23:40.480Z,21.99
2018-07-31T20:26:08.967Z,21.97
2018-07-31T20:28:37.240Z,21.93
2018-07-31T20:31:05.845Z,21.96
2018-07-31T20:33:34.303Z,21.90
2018-07-31T20:36:06.184Z,21.74
2018-07-31T20:38:34.798Z,21.64
2018-07-31T20:41:03.334Z,21.76
2018-07-31T20:43:31.947Z,21.67
2018-07-31T20:46:00.365Z,21.56
2018-07-31T20:48:32.493Z,21.44
2018-07-31T20:51:01.552Z,21.35
2018-07-31T20:53:30.373Z,21.42
2018-07-31T20:56:02.091Z,21.33
2018-07-31T20:58:30.350Z,21.33
2018-07-31T21:00:59.905Z,21.25
2018-07-31T21:03:28.447Z,21.35
2018-07-31T21:05:56.832Z,21.25
2018-07-31T21:08:25.115Z,21.26
2018-07-31T21:10:53.620Z,21.03
2018-07-31T21:13:24.445Z,21.11
2018-07-31T21:15:52.731Z,20.96
2018-07-31T21:18:21.579Z,20.96
2018-07-31T21:20:49.862Z,20.91
2018-07-31T21:23:18.583Z,20.76
2018-07-31T21:25:46.956Z,20.84
2018-07-31T21:28:15.243Z,20.81
2018-07-31T21:30:43.653Z,20.77
2018-07-31T21:33:11.957Z,20.86
2018-07-31T21:35:40.464Z,20.73
2018-07-31T21:38:08.746Z,20.82
2018-07-31T21:40:37.089Z,20.85
2018-07-31T21:43:05.345Z,20.75
2018-07-31T21:45:33.646Z,20.69
2018-07-31T21:48:01.980Z,20.62
2018-07-31T21:50:30.268Z,20.59
2018-07-31T21:52:58.665Z,20.36
2018-07-31T21:55:27.287Z,20.14
2018-07-31T21:57:55.683Z,20.01
2018-07-31T22:00:24.080Z,19.99
2018-07-31T22:02:54.154Z,20.14
2018-07-31T22:05:22.473Z,20.04
2018-07-31T22:07:50.824Z,19.97
2018-07-31T22:10:20.765Z,19.94
2018-07-31T22:12:49.148Z,20.02
2018-07-31T22:15:17.698Z,20.09
2018-07-31T22:17:46.032Z,19.97
2018-07-31T22:20:14.405Z,20.02
2018-07-31T22:22:43.025Z,20.04
2018-07-31T22:25:11.392Z,19.99
2018-07-31T22:27:43.916Z,20.02
2018-07-31T22:30:12.447Z,19.85
2018-07-31T22:32:40.765Z,19.79
2018-07-31T22:35:09.360Z,19.70
2018-07-31T22:37:37.608Z,19.32
2018-07-31T22:40:06.145Z,19.30
2018-07-31T22:42:34.740Z,19.29
2018-07-31T22:45:03.754Z,19.18
2018-07-31T22:47:32.364Z,19.13
2018-07-31T22:50:00.825Z,19.21
2018-07-31T22:52:29.118Z,19.39
2018-07-31T22:54:57.665Z,19.37
2018-07-31T22:57:26.102Z,19.35
2018-07-31T22:59:54.466Z,19.38
2018-07-31T23:02:22.793Z,19.39
2018-07-31T23:04:51.274Z,19.30
2018-07-31T23:07:19.590Z,19.33
2018-07-31T23:09:54.996Z,19.34
2018-07-31T23:12:23.361Z,19.37
2018-07-31T23:14:51.694Z,19.31
2018-07-31T23:17:19.981Z,19.24
2018-07-31T23:19:52.330Z,19.15
2018-07-31T23:22:32.104Z,19.27
2018-07-31T23:25:00.713Z,19.30
2018-07-31T23:27:28.998Z,19.26
2018-07-31T23:29:57.371Z,19.33
2018-07-31T23:32:27.860Z,19.34
2018-07-31T23:34:57.829Z,19.38
2018-07-31T23:37:26.259Z,19.34
2018-07-31T23:39:55.621Z,19.41
2018-07-31T23:42:26.254Z,19.30
2018-07-31T23:44:55.146Z,19.30
2018-07-31T23:47:23.448Z,19.43
2018-07-31T23:49:51.840Z,19.38
2018-07-31T23:52:20.200Z,19.49
2018-07-31T23:54:48.692Z,19.45
2018-07-31T23:57:17.323Z,19.38
2018-07-31T23:59:45.661Z,19.37
